Time;durP1;ratioP1;P1;durP2;ratioP2;P2;SDS_P1;SDS_P2;PMS_P1;PMS_P2;Temp;Humidity;BMP_temperature;BMP_pressure;BME280_temperature;BME280_humidity;BME280_pressure;Samples;Min_cycle;Max_cycle;Signal;HPM_P1;HPM_P2
2024/01/20 00:01:13;;;;;;;4.80;3.00;;;1.10;1.00;;;;;;10393250;28;21127;-79
2024/01/20 00:06:34;;;;;;;5.57;2.90;;;1.10;99.90;;;;;;10396035;28;20244;-80
2024/01/20 00:11:55;;;;;;;3.67;2.50;;;1.10;99.90;;;;;;10411315;28;20237;-80
2024/01/20 00:17:17;;;;;;;4.13;2.13;;;1.30;1.00;;;;;;10395964;28;20234;-78
2024/01/20 00:22:39;;;;;;;4.43;2.70;;;1.20;1.00;;;;;;10310242;28;20208;-78
2024/01/20 00:28:01;;;;;;;6.90;3.17;;;1.20;1.00;;;;;;10309433;28;20489;-79
2024/01/20 00:33:22;;;;;;;6.60;3.57;;;1.30;99.90;;;;;;10282504;28;20231;-79
2024/01/20 00:38:44;;;;;;;6.43;2.60;;;1.40;1.00;;;;;;10269094;28;20196;-79
2024/01/20 00:44:05;;;;;;;6.07;2.63;;;1.40;99.90;;;;;;10308258;28;20252;-79
2024/01/20 00:49:27;;;;;;;4.17;2.80;;;1.40;99.90;;;;;;10458955;28;20187;-81
2024/01/20 00:54:52;;;;;;;5.73;2.73;;;1.50;99.90;;;;;;10375800;28;20275;-78
2024/01/20 01:00:13;;;;;;;7.20;3.20;;;1.40;1.00;;;;;;10376931;28;20211;-80
2024/01/20 01:05:34;;;;;;;4.50;3.40;;;1.50;1.00;;;;;;10268290;29;20242;-79
2024/01/20 01:10:55;;;;;;;6.23;3.67;;;1.50;99.90;;;;;;10338123;28;20244;-78
2024/01/20 01:16:17;;;;;;;5.57;2.90;;;1.50;29.60;;;;;;10267867;28;20236;-78
2024/01/20 01:21:38;;;;;;;6.20;3.43;;;1.60;99.90;;;;;;10268610;28;20230;-79
2024/01/20 01:26:59;;;;;;;4.83;3.13;;;1.50;99.90;;;;;;10271990;28;20278;-78
2024/01/20 01:32:20;;;;;;;3.93;2.53;;;1.50;1.00;;;;;;10267623;29;20239;-84
2024/01/20 01:37:41;;;;;;;3.23;2.30;;;1.40;99.90;;;;;;10281261;28;20195;-78
2024/01/20 01:43:03;;;;;;;5.17;2.60;;;1.40;99.90;;;;;;10280773;28;20244;-79
2024/01/20 01:48:24;;;;;;;3.33;2.77;;;1.40;99.90;;;;;;10393648;28;20223;-79
2024/01/20 01:53:47;;;;;;;5.00;2.90;;;1.30;1.00;;;;;;10422322;28;20249;-80
2024/01/20 01:59:09;;;;;;;3.80;2.77;;;1.30;1.00;;;;;;10369424;28;20199;-79
2024/01/20 02:04:30;;;;;;;4.50;3.27;;;1.30;1.00;;;;;;10333993;28;20257;-79
2024/01/20 02:09:52;;;;;;;5.27;3.10;;;1.30;99.90;;;;;;10415483;28;20283;-79
2024/01/20 02:15:14;;;;;;;3.53;3.23;;;1.40;99.90;;;;;;10313529;28;20231;-79
2024/01/20 02:20:36;;;;;;;3.40;3.10;;;1.30;1.00;;;;;;10415205;28;20604;-80
2024/01/20 02:25:57;;;;;;;6.60;2.97;;;1.20;41.90;;;;;;10384138;28;20194;-79
2024/01/20 02:31:18;;;;;;;3.80;2.93;;;1.30;22.80;;;;;;10343736;28;20431;-79
2024/01/20 02:36:40;;;;;;;4.37;3.10;;;1.40;1.00;;;;;;10384847;28;20198;-81
2024/01/20 02:42:01;;;;;;;3.03;2.73;;;1.30;1.00;;;;;;10318616;28;20203;-83
2024/01/20 02:47:23;;;;;;;5.63;2.90;;;1.30;1.00;;;;;;10356896;28;20211;-84
2024/01/20 02:52:44;;;;;;;3.80;2.80;;;1.40;1.00;;;;;;10472264;28;20222;-79
2024/01/20 02:58:08;;;;;;;4.30;2.80;;;1.40;1.00;;;;;;10411182;28;20214;-78
2024/01/20 03:03:29;;;;;;;7.00;3.10;;;1.40;99.90;;;;;;10396541;28;20224;-79
2024/01/20 03:08:50;;;;;;;3.27;2.50;;;1.40;91.80;;;;;;10313222;28;20478;-83
2024/01/20 03:14:12;;;;;;;4.63;3.07;;;1.50;99.90;;;;;;10411136;28;20233;-78
2024/01/20 03:19:36;;;;;;;4.10;2.97;;;1.50;99.90;;;;;;10330724;28;20561;-83
2024/01/20 03:24:57;;;;;;;6.77;3.33;;;1.50;1.00;;;;;;10312199;28;20208;-81
2024/01/20 03:30:18;;;;;;;7.67;3.67;;;1.60;1.00;;;;;;10311069;28;20497;-78
2024/01/20 03:35:39;;;;;;;7.47;3.63;;;1.60;1.00;;;;;;10298273;28;20225;-78
2024/01/20 03:41:01;;;;;;;7.53;3.83;;;1.60;99.90;;;;;;10284160;28;20206;-83
2024/01/20 03:46:25;;;;;;;11.13;4.43;;;1.70;99.90;;;;;;10312040;28;20206;-78
2024/01/20 03:51:47;;;;;;;12.90;4.10;;;1.80;1.00;;;;;;10514512;28;20217;-83
2024/01/20 03:57:08;;;;;;;11.20;3.83;;;1.80;1.00;;;;;;10316857;28;20279;-79
2024/01/20 04:02:29;;;;;;;10.73;4.07;;;1.80;1.00;;;;;;10438226;28;20539;-79
2024/01/20 04:07:51;;;;;;;11.13;4.40;;;1.80;12.40;;;;;;10521146;28;20193;-78
2024/01/20 04:13:12;;;;;;;9.77;3.87;;;1.90;1.00;;;;;;10506167;28;20230;-78
2024/01/20 04:18:33;;;;;;;12.27;4.33;;;2.00;21.10;;;;;;10520802;28;20221;-77
2024/01/20 04:23:54;;;;;;;11.63;4.33;;;1.90;99.90;;;;;;10498272;28;20198;-83
2024/01/20 04:29:16;;;;;;;14.93;4.20;;;1.90;1.00;;;;;;10335851;28;20201;-83
2024/01/20 04:34:37;;;;;;;9.23;4.40;;;1.90;60.00;;;;;;10349858;28;20234;-82
2024/01/20 04:40:00;;;;;;;15.90;4.77;;;2.00;25.70;;;;;;10335945;28;20475;-77
2024/01/20 04:45:21;;;;;;;15.50;4.33;;;1.90;99.90;;;;;;10303702;28;20209;-78
2024/01/20 04:50:43;;;;;;;13.97;5.00;;;1.90;1.00;;;;;;10491891;28;20252;-78
2024/01/20 04:56:05;;;;;;;14.90;5.70;;;2.00;1.00;;;;;;10311414;28;20237;-77
2024/01/20 05:01:26;;;;;;;15.27;5.43;;;1.90;1.00;;;;;;10294130;28;20233;-78
2024/01/20 05:06:48;;;;;;;17.53;5.87;;;1.90;1.00;;;;;;10392866;28;20194;-78
2024/01/20 05:12:09;;;;;;;12.87;4.77;;;2.00;99.90;;;;;;10394135;28;20210;-80
2024/01/20 05:17:30;;;;;;;15.53;5.20;;;2.00;2.80;;;;;;10307867;28;20240;-78
2024/01/20 05:22:52;;;;;;;15.73;6.03;;;1.90;1.00;;;;;;10308536;28;20202;-77
2024/01/20 05:28:13;;;;;;;17.07;5.93;;;2.00;99.90;;;;;;10373975;28;20202;-77
2024/01/20 05:33:34;;;;;;;12.20;5.73;;;2.00;1.00;;;;;;10353037;28;20226;-77
2024/01/20 05:38:56;;;;;;;13.23;5.50;;;2.00;1.00;;;;;;10370344;28;20199;-81
2024/01/20 05:44:17;;;;;;;13.93;5.57;;;2.00;99.90;;;;;;10398668;28;20259;-79
2024/01/20 05:49:38;;;;;;;16.57;6.70;;;1.90;93.40;;;;;;10453413;28;20195;-83
2024/01/20 05:55:00;;;;;;;11.30;5.80;;;1.90;1.00;;;;;;10372526;28;20271;-79
2024/01/20 06:00:22;;;;;;;10.90;6.27;;;1.80;1.00;;;;;;10346499;28;20240;-80
2024/01/20 06:05:44;;;;;;;12.67;6.70;;;1.90;1.00;;;;;;10345502;28;20235;-77
2024/01/20 06:11:06;;;;;;;8.87;5.73;;;1.90;99.90;;;;;;10273096;28;20227;-78
2024/01/20 06:16:27;;;;;;;9.57;5.77;;;1.80;99.90;;;;;;10274109;29;20456;-79
2024/01/20 06:21:48;;;;;;;10.47;6.00;;;1.80;99.90;;;;;;10273184;29;20244;-78
2024/01/20 06:27:09;;;;;;;12.90;6.80;;;1.90;99.90;;;;;;10304045;28;20263;-78
2024/01/20 06:32:31;;;;;;;12.30;6.30;;;1.80;99.90;;;;;;10340386;28;20214;-78
2024/01/20 06:37:52;;;;;;;17.30;6.73;;;1.90;99.90;;;;;;10384689;28;20295;-83
2024/01/20 06:43:13;;;;;;;14.13;6.87;;;1.90;1.00;;;;;;10385156;28;20373;-83
2024/01/20 06:48:35;;;;;;;12.10;6.40;;;2.00;19.50;;;;;;10392928;28;20225;-84
2024/01/20 06:53:57;;;;;;;17.43;6.93;;;1.90;1.00;;;;;;10422510;28;20232;-78
2024/01/20 06:59:18;;;;;;;16.13;6.03;;;2.00;1.00;;;;;;10285978;28;20270;-80
2024/01/20 07:04:40;;;;;;;14.87;6.07;;;2.10;1.00;;;;;;10389497;28;20243;-78
2024/01/20 07:10:01;;;;;;;11.07;5.40;;;2.10;99.90;;;;;;10312568;28;20192;-78
2024/01/20 07:15:22;;;;;;;14.93;5.63;;;2.10;1.00;;;;;;10325492;28;20218;-78
2024/01/20 07:20:45;;;;;;;8.60;4.73;;;2.10;99.90;;;;;;10381446;28;20244;-79
2024/01/20 07:26:06;;;;;;;8.07;4.17;;;2.00;99.90;;;;;;10309077;28;20562;-80
2024/01/20 07:31:27;;;;;;;9.57;5.27;;;2.00;99.90;;;;;;10270982;28;20195;-80
2024/01/20 07:36:49;;;;;;;7.63;4.70;;;2.00;1.00;;;;;;10371812;28;20230;-79
2024/01/20 07:42:12;;;;;;;8.10;4.67;;;2.00;1.00;;;;;;10263319;28;20198;-79
2024/01/20 07:47:33;;;;;;;8.73;5.17;;;2.00;1.00;;;;;;10361221;28;20214;-78
2024/01/20 07:52:55;;;;;;;9.77;4.40;;;2.10;99.90;;;;;;10454886;28;20542;-80
2024/01/20 07:58:16;;;;;;;8.93;4.70;;;2.10;99.90;;;;;;10288542;28;20230;-80
2024/01/20 08:03:39;;;;;;;9.47;4.07;;;2.10;1.00;;;;;;10312005;28;20216;-79
2024/01/20 08:09:00;;;;;;;10.77;4.83;;;2.10;1.00;;;;;;10284489;28;20191;-81
2024/01/20 08:14:24;;;;;;;6.87;4.20;;;2.10;99.90;;;;;;10336585;28;20289;-82
2024/01/20 08:19:48;;;;;;;9.90;5.60;;;2.10;1.00;;;;;;10365574;28;20283;-81
2024/01/20 08:25:10;;;;;;;9.60;5.90;;;2.10;99.90;;;;;;10381041;28;20205;-83
2024/01/20 08:30:32;;;;;;;10.17;4.80;;;2.10;1.00;;;;;;10380091;28;20203;-83
2024/01/20 08:35:53;;;;;;;13.07;5.70;;;2.00;99.90;;;;;;10340293;28;20222;-81
2024/01/20 08:41:16;;;;;;;11.20;5.50;;;2.00;1.00;;;;;;10328032;28;20269;-83
2024/01/20 08:46:37;;;;;;;8.80;5.00;;;2.00;99.90;;;;;;10368733;28;20526;-84
2024/01/20 08:51:59;;;;;;;25.63;11.40;;;2.00;99.90;;;;;;10504254;28;20281;-82
2024/01/20 08:57:20;;;;;;;10.67;6.57;;;2.10;99.90;;;;;;10308070;28;20504;-81
2024/01/20 09:02:41;;;;;;;12.00;6.70;;;2.10;1.00;;;;;;10308273;28;20204;-81
2024/01/20 09:08:05;;;;;;;11.17;6.70;;;2.20;99.90;;;;;;10396244;28;20209;-81
2024/01/20 09:13:26;;;;;;;13.60;6.53;;;2.10;1.00;;;;;;10309810;28;20248;-82
2024/01/20 09:18:47;;;;;;;17.80;7.30;;;2.20;1.00;;;;;;10403176;28;20245;-83
2024/01/20 09:24:09;;;;;;;16.00;7.40;;;2.10;1.00;;;;;;10316184;28;20242;-83
2024/01/20 09:29:30;;;;;;;12.67;7.43;;;2.10;1.00;;;;;;10386549;28;20190;-84
2024/01/20 09:34:52;;;;;;;15.20;7.37;;;2.10;99.90;;;;;;10391895;28;20233;-80
2024/01/20 09:40:15;;;;;;;13.00;7.00;;;2.00;1.00;;;;;;10274675;28;20202;-81
2024/01/20 09:45:40;;;;;;;12.27;7.03;;;1.90;1.00;;;;;;10300226;28;20547;-81
2024/01/20 09:51:02;;;;;;;12.73;7.67;;;2.00;1.00;;;;;;10554326;28;20337;-83
2024/01/20 09:56:23;;;;;;;12.27;7.03;;;1.90;61.70;;;;;;10401072;28;20244;-80
2024/01/20 10:01:46;;;;;;;10.77;6.40;;;1.80;1.00;;;;;;10298411;28;20202;-81
2024/01/20 10:07:06;;;;;;;9.90;7.00;;;1.80;99.90;;;;;;10297130;28;20498;-81
2024/01/20 10:12:28;;;;;;;11.13;6.30;;;1.70;1.00;;;;;;10384041;28;20242;-82
2024/01/20 10:17:49;;;;;;;11.27;6.63;;;1.70;1.00;;;;;;10345548;28;20243;-82
2024/01/20 10:23:11;;;;;;;10.07;6.03;;;1.80;1.00;;;;;;10399281;28;20209;-81
2024/01/20 10:28:33;;;;;;;8.70;5.97;;;1.80;1.00;;;;;;10312869;28;20246;-80
2024/01/20 10:33:54;;;;;;;9.90;6.33;;;1.80;99.90;;;;;;10295616;28;20219;-81
2024/01/20 10:39:20;;;;;;;10.27;6.20;;;1.80;1.00;;;;;;10272392;28;20206;-80
2024/01/20 10:44:47;;;;;;;8.27;5.47;;;1.90;99.90;;;;;;10399194;28;20213;-83
2024/01/20 10:50:09;;;;;;;12.63;7.30;;;1.90;1.00;;;;;;10457893;28;20186;-80
2024/01/20 10:55:32;;;;;;;12.87;6.40;;;1.90;1.00;;;;;;10404498;28;20419;-81
2024/01/20 11:00:56;;;;;;;13.13;6.27;;;1.90;1.00;;;;;;10381021;28;20195;-83
2024/01/20 11:06:21;;;;;;;12.27;6.10;;;2.00;99.90;;;;;;10271777;29;20211;-83
2024/01/20 11:11:57;;;;;;;18.10;8.40;;;2.00;1.00;;;;;;10378971;28;20214;-82
2024/01/20 11:17:18;;;;;;;11.23;4.93;;;2.00;99.90;;;;;;10271745;28;20269;-82
2024/01/20 11:22:40;;;;;;;6.97;4.00;;;2.10;99.90;;;;;;10341899;28;20203;-81
2024/01/20 11:28:02;;;;;;;5.73;3.40;;;2.00;99.90;;;;;;10272372;28;20243;-82
2024/01/20 11:33:24;;;;;;;5.97;3.80;;;2.00;1.00;;;;;;10288245;28;20240;-82
2024/01/20 11:38:47;;;;;;;6.27;3.37;;;2.00;99.90;;;;;;10269873;28;20488;-82
2024/01/20 11:44:08;;;;;;;4.77;3.10;;;2.10;1.00;;;;;;10291987;28;20289;-82
2024/01/20 11:49:34;;;;;;;4.33;2.90;;;2.00;1.00;;;;;;10456311;28;20197;-82
2024/01/20 11:54:55;;;;;;;6.10;2.93;;;2.00;99.90;;;;;;10426543;28;20254;-82
2024/01/20 12:00:19;;;;;;;5.37;2.50;;;2.00;1.00;;;;;;10380078;28;20197;-82
2024/01/20 12:05:40;;;;;;;5.90;3.47;;;2.00;1.00;;;;;;10390299;28;20221;-83
2024/01/20 12:11:04;;;;;;;5.57;3.40;;;2.00;1.00;;;;;;10362042;28;20205;-82
2024/01/20 12:16:25;;;;;;;6.23;3.60;;;2.10;1.00;;;;;;10353683;28;20305;-81
2024/01/20 12:21:47;;;;;;;8.20;4.43;;;2.20;99.90;;;;;;10287899;28;20252;-81
2024/01/20 12:27:09;;;;;;;11.33;4.40;;;2.10;1.00;;;;;;10269535;29;20245;-82
2024/01/20 12:32:30;;;;;;;11.20;4.23;;;2.10;1.00;;;;;;10383571;28;20209;-82
2024/01/20 12:37:56;;;;;;;9.13;3.83;;;2.20;19.80;;;;;;10377521;28;20205;-82
2024/01/20 12:43:17;;;;;;;10.87;3.63;;;2.30;1.00;;;;;;10379749;28;20202;-82
2024/01/20 12:48:38;;;;;;;9.10;3.60;;;2.30;99.70;;;;;;10475981;28;20497;-81
2024/01/20 12:54:01;;;;;;;6.73;3.57;;;2.40;1.00;;;;;;10463126;28;20301;-82
2024/01/20 12:59:25;;;;;;;7.53;3.53;;;2.30;1.00;;;;;;10327438;28;20296;-82
2024/01/20 13:04:46;;;;;;;13.63;4.83;;;2.40;1.00;;;;;;10320644;28;20226;-82
2024/01/20 13:10:07;;;;;;;12.87;5.20;;;2.40;99.90;;;;;;10260789;28;20191;-81
2024/01/20 13:15:29;;;;;;;14.33;6.07;;;2.40;99.90;;;;;;10293991;28;20477;-81
2024/01/20 13:20:50;;;;;;;14.07;5.23;;;2.30;1.00;;;;;;10293794;28;20236;-81
2024/01/20 13:26:11;;;;;;;13.33;5.70;;;2.30;1.00;;;;;;10294088;28;20207;-82
2024/01/20 13:31:34;;;;;;;13.03;5.63;;;2.20;99.90;;;;;;10287651;28;20477;-81
2024/01/20 13:37:00;;;;;;;19.23;4.50;;;2.20;99.90;;;;;;10309300;28;20541;-81
2024/01/20 13:42:25;;;;;;;11.83;4.27;;;2.20;99.90;;;;;;10307282;28;20201;-82
2024/01/20 13:47:48;;;;;;;11.03;3.97;;;2.20;99.90;;;;;;10437516;28;20363;-81
2024/01/20 13:53:09;;;;;;;17.37;5.60;;;2.40;83.20;;;;;;10498097;28;20505;-82
2024/01/20 13:58:30;;;;;;;21.33;5.03;;;2.40;1.00;;;;;;10377991;28;20512;-83
2024/01/20 14:03:54;;;;;;;27.87;11.33;;;2.40;99.90;;;;;;10330352;28;20562;-83
2024/01/20 14:09:16;;;;;;;24.07;12.13;;;2.20;1.00;;;;;;10385715;28;20198;-81
2024/01/20 14:14:39;;;;;;;9.20;4.00;;;2.20;69.00;;;;;;10382668;28;20304;-83
2024/01/20 14:20:01;;;;;;;12.63;3.97;;;2.10;1.00;;;;;;10329029;28;20475;-82
2024/01/20 14:25:23;;;;;;;13.77;6.43;;;2.10;1.00;;;;;;10398581;28;20378;-83
2024/01/20 14:30:44;;;;;;;11.90;5.83;;;2.10;44.80;;;;;;10383210;28;20201;-83
2024/01/20 14:36:06;;;;;;;9.13;3.90;;;2.10;99.90;;;;;;10293040;28;20272;-82
2024/01/20 14:41:27;;;;;;;8.57;3.97;;;2.10;19.50;;;;;;10312980;28;20187;-82
2024/01/20 14:46:49;;;;;;;16.73;6.60;;;2.10;8.30;;;;;;10332873;28;20209;-83
2024/01/20 14:52:10;;;;;;;12.23;5.23;;;2.00;99.90;;;;;;10523583;28;20270;-83
2024/01/20 14:57:32;;;;;;;12.47;4.80;;;2.00;1.00;;;;;;10396973;28;20237;-80
2024/01/20 15:02:53;;;;;;;15.53;6.20;;;2.10;99.90;;;;;;10395626;28;20506;-82
2024/01/20 15:08:14;;;;;;;9.27;4.17;;;2.10;99.90;;;;;;10383174;28;20209;-80
2024/01/20 15:13:36;;;;;;;10.40;4.80;;;2.10;1.00;;;;;;10381733;28;20280;-83
2024/01/20 15:18:57;;;;;;;12.43;5.07;;;2.10;1.00;;;;;;10382767;28;20240;-83
2024/01/20 15:24:18;;;;;;;11.00;5.03;;;2.10;1.00;;;;;;10325204;28;20202;-83
2024/01/20 15:29:41;;;;;;;13.33;5.23;;;2.00;1.00;;;;;;10400241;28;20218;-83
2024/01/20 15:35:05;;;;;;;11.47;4.60;;;2.00;99.90;;;;;;10373915;28;20537;-82
2024/01/20 15:40:25;;;;;;;7.27;3.80;;;2.00;24.20;;;;;;10381927;28;20199;-83
2024/01/20 15:45:47;;;;;;;14.53;5.47;;;2.00;99.90;;;;;;10311276;28;20199;-81
2024/01/20 15:51:08;;;;;;;10.77;5.03;;;2.00;99.90;;;;;;10497529;28;20464;-82
2024/01/20 15:56:30;;;;;;;9.63;5.23;;;2.00;1.00;;;;;;10397493;28;20280;-81
2024/01/20 16:01:52;;;;;;;12.57;5.90;;;2.10;99.90;;;;;;10327265;28;20214;-81
2024/01/20 16:07:13;;;;;;;10.03;5.70;;;2.10;2.80;;;;;;10366631;28;20244;-81
2024/01/20 16:12:35;;;;;;;14.27;5.13;;;2.00;1.00;;;;;;10295993;28;20198;-81
2024/01/20 16:17:56;;;;;;;9.77;4.23;;;2.00;1.00;;;;;;10295815;28;20238;-80
2024/01/20 16:23:19;;;;;;;6.50;4.43;;;2.00;99.90;;;;;;10369973;28;20207;-81
2024/01/20 16:28:40;;;;;;;16.93;9.13;;;1.90;1.00;;;;;;10283320;28;20203;-81
2024/01/20 16:34:04;;;;;;;17.40;10.67;;;1.90;98.80;;;;;;10294148;28;20226;-82
2024/01/20 16:39:26;;;;;;;8.60;5.50;;;1.90;1.00;;;;;;10308503;28;20195;-81
2024/01/20 16:44:47;;;;;;;6.80;3.50;;;1.90;99.90;;;;;;10308451;28;20213;-81
2024/01/20 16:50:09;;;;;;;6.20;2.80;;;1.90;1.00;;;;;;10468773;28;20266;-81
2024/01/20 16:55:30;;;;;;;6.73;3.13;;;1.90;1.00;;;;;;10400293;28;20232;-80
2024/01/20 17:00:51;;;;;;;12.17;4.30;;;1.80;99.90;;;;;;10378690;28;20199;-83
2024/01/20 17:06:17;;;;;;;9.77;4.77;;;1.80;1.00;;;;;;10395447;28;20236;-84
2024/01/20 17:11:39;;;;;;;9.20;4.60;;;1.70;1.00;;;;;;10308506;28;20267;-85
2024/01/20 17:17:00;;;;;;;10.83;4.80;;;1.70;1.00;;;;;;10308223;28;20301;-83
2024/01/20 17:22:22;;;;;;;11.80;3.90;;;1.70;1.00;;;;;;10294642;28;20190;-84
2024/01/20 17:27:43;;;;;;;9.50;4.50;;;1.60;99.90;;;;;;10307974;28;20205;-84
2024/01/20 17:33:04;;;;;;;16.47;7.70;;;1.70;1.00;;;;;;10292631;28;20207;-84
2024/01/20 17:38:25;;;;;;;21.30;11.50;;;1.80;99.90;;;;;;10420120;28;20194;-79
2024/01/20 17:43:47;;;;;;;20.27;10.23;;;1.90;99.90;;;;;;10300674;28;20203;-80
2024/01/20 17:49:09;;;;;;;26.77;16.27;;;1.90;1.00;;;;;;10418362;28;20198;-80
2024/01/20 17:54:31;;;;;;;21.03;12.77;;;1.90;1.00;;;;;;10448461;28;20231;-80
2024/01/20 17:59:53;;;;;;;29.20;14.03;;;1.90;45.90;;;;;;10401967;28;20278;-83
2024/01/20 18:05:17;;;;;;;31.20;15.10;;;1.90;99.90;;;;;;10312833;28;20207;-79
2024/01/20 18:10:41;;;;;;;15.30;6.40;;;1.90;99.90;;;;;;10266841;28;20265;-81
2024/01/20 18:16:03;;;;;;;15.93;6.13;;;1.90;1.00;;;;;;10300057;28;20271;-81
2024/01/20 18:21:24;;;;;;;15.70;7.33;;;1.90;99.90;;;;;;10308575;28;20305;-81
2024/01/20 18:26:46;;;;;;;21.57;9.70;;;1.90;53.60;;;;;;10274247;29;20217;-79
2024/01/20 18:32:09;;;;;;;30.37;14.23;;;1.80;1.00;;;;;;10274429;28;20195;-80
2024/01/20 18:37:31;;;;;;;44.57;18.43;;;1.90;1.00;;;;;;10362596;28;20253;-81
2024/01/20 18:42:54;;;;;;;63.60;31.87;;;1.80;99.90;;;;;;10313617;28;20209;-79
2024/01/20 18:48:16;;;;;;;109.93;46.03;;;1.80;1.00;;;;;;10416725;28;20558;-82
2024/01/20 18:53:37;;;;;;;108.43;42.50;;;1.80;1.00;;;;;;10399798;28;20287;-81
2024/01/20 18:58:58;;;;;;;88.07;32.80;;;1.80;99.90;;;;;;10330960;28;20202;-81
2024/01/20 19:04:20;;;;;;;60.07;24.90;;;1.90;99.90;;;;;;10380614;28;20206;-84
2024/01/20 19:09:42;;;;;;;38.27;16.57;;;1.90;99.90;;;;;;10401112;28;20202;-80
2024/01/20 19:15:03;;;;;;;32.77;15.03;;;1.90;1.00;;;;;;10310982;28;20230;-79
2024/01/20 19:20:25;;;;;;;16.83;9.83;;;1.90;1.00;;;;;;10367988;28;20464;-81
2024/01/20 19:25:49;;;;;;;18.17;8.23;;;1.90;99.90;;;;;;10311288;28;20450;-80
2024/01/20 19:31:13;;;;;;;15.13;8.20;;;1.90;1.00;;;;;;10297556;28;20199;-85
2024/01/20 19:36:34;;;;;;;19.40;8.80;;;1.90;99.90;;;;;;10343226;28;20252;-80
2024/01/20 19:41:58;;;;;;;18.33;9.30;;;1.80;1.00;;;;;;10297787;28;20236;-82
2024/01/20 19:47:21;;;;;;;28.63;14.07;;;1.80;1.00;;;;;;10309698;28;20204;-80
2024/01/20 19:52:42;;;;;;;23.20;11.93;;;1.80;99.90;;;;;;10390817;28;20235;-79
2024/01/20 19:58:06;;;;;;;15.00;7.50;;;1.70;1.00;;;;;;10347326;28;20301;-81
2024/01/20 20:03:27;;;;;;;12.00;5.40;;;1.70;99.90;;;;;;10361049;28;20385;-80
2024/01/20 20:08:51;;;;;;;9.60;5.00;;;1.50;99.90;;;;;;10393588;28;20257;-80
2024/01/20 20:14:13;;;;;;;6.40;3.87;;;1.50;1.00;;;;;;10296516;28;20207;-82
2024/01/20 20:19:34;;;;;;;9.07;5.13;;;1.50;99.90;;;;;;10414587;28;20314;-82
2024/01/20 20:24:56;;;;;;;10.63;6.33;;;1.40;1.00;;;;;;10441617;28;20197;-85
2024/01/20 20:30:17;;;;;;;24.60;12.83;;;1.30;1.00;;;;;;10350064;28;20202;-82
2024/01/20 20:35:39;;;;;;;32.47;15.83;;;1.30;1.00;;;;;;10365802;28;20233;-79
2024/01/20 20:41:00;;;;;;;30.50;17.53;;;1.20;1.00;;;;;;10256322;28;20490;-82
2024/01/20 20:46:23;;;;;;;37.67;18.57;;;1.10;1.00;;;;;;10412678;28;20235;-80
2024/01/20 20:51:46;;;;;;;35.97;19.20;;;1.10;99.90;;;;;;10335970;28;20192;-79
2024/01/20 20:57:09;;;;;;;36.40;18.37;;;1.00;1.00;;;;;;10309714;28;20417;-81
2024/01/20 21:02:30;;;;;;;31.57;16.83;;;1.00;1.00;;;;;;10380270;28;20225;-84
2024/01/20 21:07:52;;;;;;;29.50;16.13;;;0.90;1.00;;;;;;10379043;28;20886;-85
2024/01/20 21:13:15;;;;;;;28.63;15.03;;;0.90;1.00;;;;;;10396482;28;20205;-84
2024/01/20 21:18:37;;;;;;;31.13;15.00;;;0.90;99.90;;;;;;10412438;28;20259;-84
2024/01/20 21:24:00;;;;;;;29.03;15.17;;;0.90;99.90;;;;;;10393297;28;20240;-81
2024/01/20 21:29:23;;;;;;;42.20;21.00;;;0.90;92.10;;;;;;10377375;28;20206;-79
2024/01/20 21:34:45;;;;;;;39.50;19.03;;;1.00;40.90;;;;;;10395089;28;20305;-85
2024/01/20 21:40:08;;;;;;;32.30;13.70;;;1.10;99.90;;;;;;10303830;28;20254;-80
2024/01/20 21:45:29;;;;;;;23.73;12.37;;;1.20;1.00;;;;;;10307048;28;20206;-81
2024/01/20 21:50:50;;;;;;;21.63;10.97;;;1.20;1.00;;;;;;10293597;28;20528;-83
2024/01/20 21:56:15;;;;;;;22.23;9.90;;;1.30;99.90;;;;;;10347214;28;20292;-84
2024/01/20 22:01:36;;;;;;;22.37;9.77;;;1.30;1.00;;;;;;10504080;28;20198;-86
2024/01/20 22:06:57;;;;;;;18.23;10.30;;;1.40;99.90;;;;;;10304165;28;20215;-85
2024/01/20 22:12:19;;;;;;;23.17;10.03;;;1.50;99.90;;;;;;10355306;28;20230;-86
2024/01/20 22:17:40;;;;;;;15.97;8.73;;;1.60;99.90;;;;;;10285114;28;20305;-79
2024/01/20 22:23:02;;;;;;;28.77;13.90;;;1.60;1.00;;;;;;10362375;28;20562;-82
2024/01/20 22:28:23;;;;;;;53.67;25.93;;;1.60;1.00;;;;;;10287038;28;20206;-82
2024/01/20 22:33:44;;;;;;;77.83;33.03;;;1.60;99.90;;;;;;10358688;28;20482;-79
2024/01/20 22:39:06;;;;;;;90.27;34.03;;;1.60;1.00;;;;;;10335460;28;20297;-79
2024/01/20 22:44:27;;;;;;;61.77;29.43;;;1.50;25.90;;;;;;10315140;28;20210;-79
2024/01/20 22:49:49;;;;;;;50.67;24.77;;;1.50;99.90;;;;;;10331328;28;20243;-81
2024/01/20 22:55:11;;;;;;;65.87;32.67;;;1.50;99.90;;;;;;10351109;28;20222;-80
2024/01/20 23:00:33;;;;;;;66.10;32.33;;;1.50;1.00;;;;;;10523581;28;20245;-81
2024/01/20 23:05:54;;;;;;;50.07;26.90;;;1.50;1.00;;;;;;10353010;28;20209;-82
2024/01/20 23:11:16;;;;;;;51.33;26.30;;;1.40;99.90;;;;;;10272139;28;20191;-79
2024/01/20 23:16:37;;;;;;;47.90;26.67;;;1.30;99.90;;;;;;10303781;28;20235;-80
2024/01/20 23:21:58;;;;;;;57.63;31.07;;;1.30;1.00;;;;;;10358451;28;20235;-82
2024/01/20 23:27:20;;;;;;;56.83;30.23;;;1.30;1.00;;;;;;10285045;28;20383;-81
2024/01/20 23:32:42;;;;;;;62.77;31.40;;;1.30;99.90;;;;;;10271283;28;20192;-80
2024/01/20 23:38:03;;;;;;;57.50;31.73;;;1.30;1.00;;;;;;10312515;28;20287;-80
2024/01/20 23:43:24;;;;;;;47.27;24.97;;;1.30;99.90;;;;;;10335540;28;20200;-79
2024/01/20 23:48:46;;;;;;;58.80;29.40;;;1.30;1.00;;;;;;10311079;28;20202;-79
2024/01/20 23:54:07;;;;;;;56.97;26.47;;;1.30;40.80;;;;;;10329266;28;20512;-80
2024/01/20 23:59:28;;;;;;;67.67;31.03;;;1.40;1.00;;;;;;10502009;28;20275;-80
